sensor_id;sensor_type;location;lat;lon;timestamp;pressure;altitude;pressure_sealevel;temperature;humidity
54900;BME280;40801;41.924;25.562;2022-08-19T00:01:31;98964.41;;;25.44;45.02
54900;BME280;40801;41.924;25.562;2022-08-19T00:03:58;98971.19;;;25.40;45.31
54900;BME280;40801;41.924;25.562;2022-08-19T00:06:24;98975.97;;;25.36;45.28
54900;BME280;40801;41.924;25.562;2022-08-19T00:08:50;98980.72;;;25.35;45.11
54900;BME280;40801;41.924;25.562;2022-08-19T00:11:16;98975.09;;;25.42;45.20
54900;BME280;40801;41.924;25.562;2022-08-19T00:13:42;98970.03;;;25.37;45.39
54900;BME280;40801;41.924;25.562;2022-08-19T00:16:08;98977.22;;;25.31;45.95
54900;BME280;40801;41.924;25.562;2022-08-19T00:18:34;98977.63;;;25.29;45.89
54900;BME280;40801;41.924;25.562;2022-08-19T00:21:00;98979.59;;;25.29;45.86
54900;BME280;40801;41.924;25.562;2022-08-19T00:23:26;98975.66;;;25.30;46.08
54900;BME280;40801;41.924;25.562;2022-08-19T00:25:51;98981.22;;;25.26;46.24
54900;BME280;40801;41.924;25.562;2022-08-19T00:28:17;98977.72;;;25.22;46.59
54900;BME280;40801;41.924;25.562;2022-08-19T00:30:43;98976.53;;;25.23;46.41
54900;BME280;40801;41.924;25.562;2022-08-19T00:33:08;98982.13;;;25.16;46.63
54900;BME280;40801;41.924;25.562;2022-08-19T00:35:34;98972.31;;;25.12;47.17
54900;BME280;40801;41.924;25.562;2022-08-19T00:37:59;98968.03;;;25.07;47.37
54900;BME280;40801;41.924;25.562;2022-08-19T00:40:25;98970.00;;;25.07;47.32
54900;BME280;40801;41.924;25.562;2022-08-19T00:42:51;98974.38;;;25.04;47.54
54900;BME280;40801;41.924;25.562;2022-08-19T00:45:20;98972.44;;;25.01;47.73
54900;BME280;40801;41.924;25.562;2022-08-19T00:47:47;98974.44;;;24.97;47.93
54900;BME280;40801;41.924;25.562;2022-08-19T00:50:14;98974.47;;;24.93;48.16
54900;BME280;40801;41.924;25.562;2022-08-19T00:52:45;98975.69;;;24.92;48.13
54900;BME280;40801;41.924;25.562;2022-08-19T00:55:18;98973.66;;;24.96;48.41
54900;BME280;40801;41.924;25.562;2022-08-19T00:57:54;98974.47;;;24.93;48.87
54900;BME280;40801;41.924;25.562;2022-08-19T01:00:22;98978.84;;;24.91;49.03
54900;BME280;40801;41.924;25.562;2022-08-19T01:02:48;98980.13;;;24.79;49.23
54900;BME280;40801;41.924;25.562;2022-08-19T01:05:19;98974.75;;;24.68;50.43
54900;BME280;40801;41.924;25.562;2022-08-19T01:07:47;98967.75;;;24.60;49.91
54900;BME280;40801;41.924;25.562;2022-08-19T01:10:15;98968.16;;;24.55;49.62
54900;BME280;40801;41.924;25.562;2022-08-19T01:12:44;98968.56;;;24.54;49.59
54900;BME280;40801;41.924;25.562;2022-08-19T01:15:12;98976.47;;;24.52;49.77
54900;BME280;40801;41.924;25.562;2022-08-19T01:17:40;98976.50;;;24.48;49.97
54900;BME280;40801;41.924;25.562;2022-08-19T01:20:10;98968.63;;;24.47;50.02
54900;BME280;40801;41.924;25.562;2022-08-19T01:23:08;98970.66;;;24.43;50.86
54900;BME280;40801;41.924;25.562;2022-08-19T01:25:46;98972.28;;;24.36;50.92
54900;BME280;40801;41.924;25.562;2022-08-19T01:28:25;98973.91;;;24.30;50.75
54900;BME280;40801;41.924;25.562;2022-08-19T01:30:52;98972.34;;;24.29;50.10
54900;BME280;40801;41.924;25.562;2022-08-19T01:33:19;98975.09;;;24.26;50.53
54900;BME280;40801;41.924;25.562;2022-08-19T01:35:46;98976.72;;;24.20;50.69
54900;BME280;40801;41.924;25.562;2022-08-19T01:38:24;98970.81;;;24.18;51.15
54900;BME280;40801;41.924;25.562;2022-08-19T01:40:51;98972.84;;;24.10;51.13
54900;BME280;40801;41.924;25.562;2022-08-19T01:43:17;98976.41;;;24.10;51.05
54900;BME280;40801;41.924;25.562;2022-08-19T01:45:44;98976.44;;;24.07;51.10
54900;BME280;40801;41.924;25.562;2022-08-19T01:48:09;98978.44;;;24.03;51.27
54900;BME280;40801;41.924;25.562;2022-08-19T01:50:35;98971.78;;;23.93;51.59
54900;BME280;40801;41.924;25.562;2022-08-19T01:53:04;98979.25;;;23.96;51.71
54900;BME280;40801;41.924;25.562;2022-08-19T01:55:30;98969.41;;;23.95;51.66
54900;BME280;40801;41.924;25.562;2022-08-19T01:57:58;98969.81;;;23.94;51.79
54900;BME280;40801;41.924;25.562;2022-08-19T02:00:28;98973.34;;;23.94;52.30
54900;BME280;40801;41.924;25.562;2022-08-19T02:02:54;98972.22;;;23.88;51.88
54900;BME280;40801;41.924;25.562;2022-08-19T02:05:20;98972.66;;;23.83;52.24
54900;BME280;40801;41.924;25.562;2022-08-19T02:07:47;98975.81;;;23.82;52.05
54900;BME280;40801;41.924;25.562;2022-08-19T02:10:21;98974.25;;;23.81;52.73
54900;BME280;40801;41.924;25.562;2022-08-19T02:12:47;98978.19;;;23.79;52.12
54900;BME280;40801;41.924;25.562;2022-08-19T02:15:14;98985.31;;;23.73;52.27
54900;BME280;40801;41.924;25.562;2022-08-19T02:17:40;98986.09;;;23.74;52.34
54900;BME280;40801;41.924;25.562;2022-08-19T02:20:06;98990.00;;;23.76;52.26
54900;BME280;40801;41.924;25.562;2022-08-19T02:22:32;99001.03;;;23.69;52.33
54900;BME280;40801;41.924;25.562;2022-08-19T02:24:57;98995.59;;;23.62;52.95
54900;BME280;40801;41.924;25.562;2022-08-19T02:27:23;98994.41;;;23.60;52.81
54900;BME280;40801;41.924;25.562;2022-08-19T02:29:49;99001.91;;;23.59;52.99
54900;BME280;40801;41.924;25.562;2022-08-19T02:32:16;99003.47;;;23.57;52.93
54900;BME280;40801;41.924;25.562;2022-08-19T02:34:42;99006.25;;;23.57;53.31
54900;BME280;40801;41.924;25.562;2022-08-19T02:37:07;99012.13;;;23.55;53.16
54900;BME280;40801;41.924;25.562;2022-08-19T02:39:52;99011.75;;;23.57;53.04
54900;BME280;40801;41.924;25.562;2022-08-19T02:42:18;99013.31;;;23.58;53.07
54900;BME280;40801;41.924;25.562;2022-08-19T02:44:43;99010.94;;;23.53;53.67
54900;BME280;40801;41.924;25.562;2022-08-19T02:47:09;99018.03;;;23.54;53.42
54900;BME280;40801;41.924;25.562;2022-08-19T02:49:36;99021.97;;;23.56;53.50
54900;BME280;40801;41.924;25.562;2022-08-19T02:52:02;99023.16;;;23.52;53.66
54900;BME280;40801;41.924;25.562;2022-08-19T02:54:28;99034.56;;;23.50;54.10
54900;BME280;40801;41.924;25.562;2022-08-19T02:56:53;99027.47;;;23.49;53.82
54900;BME280;40801;41.924;25.562;2022-08-19T02:59:19;99036.56;;;23.42;54.46
54900;BME280;40801;41.924;25.562;2022-08-19T03:01:45;99033.78;;;23.46;54.36
54900;BME280;40801;41.924;25.562;2022-08-19T03:04:13;99036.94;;;23.37;54.67
54900;BME280;40801;41.924;25.562;2022-08-19T03:06:44;99033.81;;;23.35;54.65
54900;BME280;40801;41.924;25.562;2022-08-19T03:09:11;99045.63;;;23.32;54.63
54900;BME280;40801;41.924;25.562;2022-08-19T03:11:37;99035.00;;;23.31;54.82
54900;BME280;40801;41.924;25.562;2022-08-19T03:14:05;99041.31;;;23.31;55.12
54900;BME280;40801;41.924;25.562;2022-08-19T03:16:33;99040.13;;;23.29;55.15
54900;BME280;40801;41.924;25.562;2022-08-19T03:18:59;99042.47;;;23.30;55.19
54900;BME280;40801;41.924;25.562;2022-08-19T03:21:26;99045.25;;;23.23;55.29
54900;BME280;40801;41.924;25.562;2022-08-19T03:24:01;99039.75;;;23.27;55.98
54900;BME280;40801;41.924;25.562;2022-08-19T03:26:27;99044.47;;;23.26;55.07
54900;BME280;40801;41.924;25.562;2022-08-19T03:28:53;99053.13;;;23.21;55.33
54900;BME280;40801;41.924;25.562;2022-08-19T03:31:20;99055.88;;;23.21;55.41
54900;BME280;40801;41.924;25.562;2022-08-19T03:33:50;99059.03;;;23.20;55.38
54900;BME280;40801;41.924;25.562;2022-08-19T03:36:21;99055.09;;;23.21;55.65
54900;BME280;40801;41.924;25.562;2022-08-19T03:38:55;99057.47;;;23.18;55.90
54900;BME280;40801;41.924;25.562;2022-08-19T03:41:26;99065.31;;;23.20;55.56
54900;BME280;40801;41.924;25.562;2022-08-19T03:43:53;99065.31;;;23.24;55.44
54900;BME280;40801;41.924;25.562;2022-08-19T03:46:27;99061.75;;;23.27;55.62
54900;BME280;40801;41.924;25.562;2022-08-19T03:48:55;99070.78;;;23.31;55.33
54900;BME280;40801;41.924;25.562;2022-08-19T03:51:24;99067.66;;;23.29;55.93
54900;BME280;40801;41.924;25.562;2022-08-19T03:53:52;99070.38;;;23.36;55.65
54900;BME280;40801;41.924;25.562;2022-08-19T03:56:19;99068.41;;;23.43;55.49
54900;BME280;40801;41.924;25.562;2022-08-19T03:58:45;99073.88;;;23.51;55.11
54900;BME280;40801;41.924;25.562;2022-08-19T04:01:14;99069.16;;;23.47;55.54
54900;BME280;40801;41.924;25.562;2022-08-19T04:03:40;99070.72;;;23.56;55.30
54900;BME280;40801;41.924;25.562;2022-08-19T04:06:14;99072.28;;;23.60;55.97
54900;BME280;40801;41.924;25.562;2022-08-19T04:08:45;99079.38;;;23.58;55.70
54900;BME280;40801;41.924;25.562;2022-08-19T04:11:13;99076.56;;;23.68;55.40
54900;BME280;40801;41.924;25.562;2022-08-19T04:13:40;99080.88;;;23.69;55.38
54900;BME280;40801;41.924;25.562;2022-08-19T04:16:08;99085.53;;;23.87;55.06
54900;BME280;40801;41.924;25.562;2022-08-19T04:18:35;99079.97;;;23.97;54.80
54900;BME280;40801;41.924;25.562;2022-08-19T04:21:00;99089.00;;;24.05;54.71
54900;BME280;40801;41.924;25.562;2022-08-19T04:23:26;99092.50;;;24.13;55.04
54900;BME280;40801;41.924;25.562;2022-08-19T04:25:53;99084.56;;;24.18;54.74
54900;BME280;40801;41.924;25.562;2022-08-19T04:28:19;99086.50;;;24.25;54.92
54900;BME280;40801;41.924;25.562;2022-08-19T04:30:47;99090.03;;;24.32;55.15
54900;BME280;40801;41.924;25.562;2022-08-19T04:33:15;99088.81;;;24.40;54.93
54900;BME280;40801;41.924;25.562;2022-08-19T04:35:43;99089.59;;;24.41;55.08
54900;BME280;40801;41.924;25.562;2022-08-19T04:38:11;99080.44;;;24.51;54.72
54900;BME280;40801;41.924;25.562;2022-08-19T04:40:41;99082.72;;;24.63;54.51
54900;BME280;40801;41.924;25.562;2022-08-19T04:43:26;99095.19;;;24.79;53.39
54900;BME280;40801;41.924;25.562;2022-08-19T04:45:52;99088.78;;;24.92;53.23
54900;BME280;40801;41.924;25.562;2022-08-19T04:48:18;99082.03;;;25.00;53.31
54900;BME280;40801;41.924;25.562;2022-08-19T04:50:56;99079.28;;;24.97;53.58
54900;BME280;40801;41.924;25.562;2022-08-19T04:53:28;99079.28;;;25.00;53.03
54900;BME280;40801;41.924;25.562;2022-08-19T04:55:55;99084.25;;;25.13;52.75
54900;BME280;40801;41.924;25.562;2022-08-19T04:58:22;99086.88;;;25.27;52.70
54900;BME280;40801;41.924;25.562;2022-08-19T05:00:48;99086.41;;;25.36;52.37
54900;BME280;40801;41.924;25.562;2022-08-19T05:03:13;99091.41;;;25.44;51.78
54900;BME280;40801;41.924;25.562;2022-08-19T05:05:43;99085.78;;;25.55;51.63
54900;BME280;40801;41.924;25.562;2022-08-19T05:08:10;99090.75;;;25.71;51.06
54900;BME280;40801;41.924;25.562;2022-08-19T05:10:37;99087.03;;;25.84;51.20
54900;BME280;40801;41.924;25.562;2022-08-19T05:13:03;99086.81;;;25.99;50.82
54900;BME280;40801;41.924;25.562;2022-08-19T05:15:29;99092.59;;;26.11;50.70
54900;BME280;40801;41.924;25.562;2022-08-19T05:17:54;99096.41;;;26.21;50.67
54900;BME280;40801;41.924;25.562;2022-08-19T05:20:39;99097.78;;;26.36;50.69
54900;BME280;40801;41.924;25.562;2022-08-19T05:23:22;99094.44;;;26.48;50.55
54900;BME280;40801;41.924;25.562;2022-08-19T05:25:48;99092.28;;;26.60;50.45
54900;BME280;40801;41.924;25.562;2022-08-19T05:28:13;99087.38;;;26.71;50.12
54900;BME280;40801;41.924;25.562;2022-08-19T05:30:39;99095.91;;;26.80;50.21
54900;BME280;40801;41.924;25.562;2022-08-19T05:33:06;99089.00;;;26.92;50.04
54900;BME280;40801;41.924;25.562;2022-08-19T05:35:36;99090.41;;;27.03;49.73
54900;BME280;40801;41.924;25.562;2022-08-19T05:38:02;99085.44;;;27.14;49.75
54900;BME280;40801;41.924;25.562;2022-08-19T05:40:28;99082.00;;;27.30;49.57
54900;BME280;40801;41.924;25.562;2022-08-19T05:42:53;99081.22;;;27.50;49.36
54900;BME280;40801;41.924;25.562;2022-08-19T05:45:19;99086.50;;;27.64;49.27
54900;BME280;40801;41.924;25.562;2022-08-19T05:47:46;99085.72;;;27.83;48.66
54900;BME280;40801;41.924;25.562;2022-08-19T05:50:12;99081.06;;;27.96;48.38
54900;BME280;40801;41.924;25.562;2022-08-19T05:52:38;99096.19;;;28.12;48.47
54900;BME280;40801;41.924;25.562;2022-08-19T05:55:03;99090.72;;;28.08;48.16
54900;BME280;40801;41.924;25.562;2022-08-19T05:57:29;99094.72;;;28.23;48.16
54900;BME280;40801;41.924;25.562;2022-08-19T05:59:55;99097.81;;;28.45;47.75
54900;BME280;40801;41.924;25.562;2022-08-19T06:02:21;99107.00;;;28.58;47.34
54900;BME280;40801;41.924;25.562;2022-08-19T06:04:47;99105.53;;;28.70;47.26
54900;BME280;40801;41.924;25.562;2022-08-19T06:07:13;99100.69;;;28.90;47.00
54900;BME280;40801;41.924;25.562;2022-08-19T06:09:39;99099.25;;;29.15;46.35
54900;BME280;40801;41.924;25.562;2022-08-19T06:12:04;99103.13;;;29.34;45.37
54900;BME280;40801;41.924;25.562;2022-08-19T06:14:32;99101.53;;;29.49;45.51
54900;BME280;40801;41.924;25.562;2022-08-19T06:16:59;99108.91;;;29.55;45.04
54900;BME280;40801;41.924;25.562;2022-08-19T06:19:27;99104.72;;;29.64;44.76
54900;BME280;40801;41.924;25.562;2022-08-19T06:21:56;99107.88;;;29.78;44.32
54900;BME280;40801;41.924;25.562;2022-08-19T06:24:24;99114.22;;;29.91;44.09
54900;BME280;40801;41.924;25.562;2022-08-19T06:26:52;99120.53;;;30.08;43.87
54900;BME280;40801;41.924;25.562;2022-08-19T06:29:18;99112.50;;;30.36;43.46
54900;BME280;40801;41.924;25.562;2022-08-19T06:31:47;99117.19;;;30.51;43.11
54900;BME280;40801;41.924;25.562;2022-08-19T06:34:15;99110.63;;;30.83;42.77
54900;BME280;40801;41.924;25.562;2022-08-19T06:36:44;99118.22;;;31.18;41.74
54900;BME280;40801;41.924;25.562;2022-08-19T06:39:15;99125.28;;;31.44;40.85
54900;BME280;40801;41.924;25.562;2022-08-19T06:41:44;99125.34;;;31.53;40.79
54900;BME280;40801;41.924;25.562;2022-08-19T06:44:10;99118.34;;;31.70;40.91
54900;BME280;40801;41.924;25.562;2022-08-19T06:46:37;99128.00;;;32.00;40.38
54900;BME280;40801;41.924;25.562;2022-08-19T06:49:04;99119.19;;;32.33;39.65
54900;BME280;40801;41.924;25.562;2022-08-19T06:51:30;99124.69;;;32.46;39.36
54900;BME280;40801;41.924;25.562;2022-08-19T06:53:58;99118.41;;;32.73;38.61
54900;BME280;40801;41.924;25.562;2022-08-19T06:56:26;99120.78;;;32.83;38.31
54900;BME280;40801;41.924;25.562;2022-08-19T06:58:56;99120.84;;;33.02;37.80
54900;BME280;40801;41.924;25.562;2022-08-19T07:01:22;99111.97;;;33.12;37.24
54900;BME280;40801;41.924;25.562;2022-08-19T07:03:47;99111.03;;;33.24;37.21
54900;BME280;40801;41.924;25.562;2022-08-19T07:06:16;99119.00;;;33.35;36.67
54900;BME280;40801;41.924;25.562;2022-08-19T07:08:45;99121.97;;;33.41;36.25
54900;BME280;40801;41.924;25.562;2022-08-19T07:11:16;99121.78;;;33.90;35.57
54900;BME280;40801;41.924;25.562;2022-08-19T07:13:43;99117.53;;;34.13;35.65
54900;BME280;40801;41.924;25.562;2022-08-19T07:16:14;99110.34;;;34.21;35.00
54900;BME280;40801;41.924;25.562;2022-08-19T07:18:40;99115.41;;;34.32;35.12
54900;BME280;40801;41.924;25.562;2022-08-19T07:21:14;99107.94;;;34.71;33.88
54900;BME280;40801;41.924;25.562;2022-08-19T07:23:41;99111.25;;;34.93;33.81
54900;BME280;40801;41.924;25.562;2022-08-19T07:26:08;99101.31;;;35.31;32.88
54900;BME280;40801;41.924;25.562;2022-08-19T07:28:34;99101.94;;;35.35;32.88
54900;BME280;40801;41.924;25.562;2022-08-19T07:31:06;99104.97;;;35.61;33.10
54900;BME280;40801;41.924;25.562;2022-08-19T07:33:33;99108.03;;;35.48;32.48
54900;BME280;40801;41.924;25.562;2022-08-19T07:36:01;99107.78;;;35.76;32.55
54900;BME280;40801;41.924;25.562;2022-08-19T07:38:26;99105.00;;;35.90;32.00
54900;BME280;40801;41.924;25.562;2022-08-19T07:40:52;99098.59;;;36.19;31.57
54900;BME280;40801;41.924;25.562;2022-08-19T07:43:17;99098.19;;;36.26;30.97
54900;BME280;40801;41.924;25.562;2022-08-19T07:45:48;99099.88;;;36.53;30.77
54900;BME280;40801;41.924;25.562;2022-08-19T07:48:13;99102.25;;;36.96;30.06
54900;BME280;40801;41.924;25.562;2022-08-19T07:50:39;99101.81;;;37.23;30.40
54900;BME280;40801;41.924;25.562;2022-08-19T07:53:05;99096.66;;;37.36;29.64
54900;BME280;40801;41.924;25.562;2022-08-19T07:55:30;99097.22;;;37.66;29.72
54900;BME280;40801;41.924;25.562;2022-08-19T07:57:56;99095.25;;;37.72;29.08
54900;BME280;40801;41.924;25.562;2022-08-19T08:00:22;99099.25;;;37.92;28.78
54900;BME280;40801;41.924;25.562;2022-08-19T08:02:48;99101.47;;;38.13;28.54
54900;BME280;40801;41.924;25.562;2022-08-19T08:05:13;99094.56;;;38.46;27.83
54900;BME280;40801;41.924;25.562;2022-08-19T08:07:57;99086.13;;;38.46;27.99
54900;BME280;40801;41.924;25.562;2022-08-19T08:10:41;99090.50;;;38.53;26.71
54900;BME280;40801;41.924;25.562;2022-08-19T08:13:15;99085.44;;;38.20;27.80
54900;BME280;40801;41.924;25.562;2022-08-19T08:15:41;99090.84;;;37.97;28.19
54900;BME280;40801;41.924;25.562;2022-08-19T08:18:07;99089.13;;;38.37;27.94
54900;BME280;40801;41.924;25.562;2022-08-19T08:20:33;99083.59;;;38.54;27.44
54900;BME280;40801;41.924;25.562;2022-08-19T08:22:58;99087.91;;;38.92;27.44
54900;BME280;40801;41.924;25.562;2022-08-19T08:25:42;99099.34;;;39.25;26.54
54900;BME280;40801;41.924;25.562;2022-08-19T08:28:08;99093.28;;;39.55;26.47
54900;BME280;40801;41.924;25.562;2022-08-19T08:30:34;99088.69;;;39.74;25.78
54900;BME280;40801;41.924;25.562;2022-08-19T08:33:02;99080.97;;;39.69;25.31
54900;BME280;40801;41.924;25.562;2022-08-19T08:35:27;99077.63;;;39.54;25.59
54900;BME280;40801;41.924;25.562;2022-08-19T08:37:54;99082.53;;;39.81;25.57
54900;BME280;40801;41.924;25.562;2022-08-19T08:40:43;99078.69;;;40.23;24.98
54900;BME280;40801;41.924;25.562;2022-08-19T08:43:34;99084.81;;;40.33;24.30
54900;BME280;40801;41.924;25.562;2022-08-19T08:46:07;99077.38;;;40.36;24.70
54900;BME280;40801;41.924;25.562;2022-08-19T08:48:51;99064.78;;;40.53;23.81
54900;BME280;40801;41.924;25.562;2022-08-19T08:51:44;99073.53;;;40.28;24.09
54900;BME280;40801;41.924;25.562;2022-08-19T08:54:14;99064.19;;;40.83;23.42
54900;BME280;40801;41.924;25.562;2022-08-19T08:56:44;99065.19;;;40.85;23.83
54900;BME280;40801;41.924;25.562;2022-08-19T09:01:47;99053.72;;;41.66;22.84
54900;BME280;40801;41.924;25.562;2022-08-19T09:04:13;99060.22;;;41.50;22.22
54900;BME280;40801;41.924;25.562;2022-08-19T09:09:47;99060.28;;;41.44;22.08
54900;BME280;40801;41.924;25.562;2022-08-19T09:15:06;99065.91;;;41.50;21.50
54900;BME280;40801;41.924;25.562;2022-08-19T09:17:33;99054.25;;;41.64;21.74
54900;BME280;40801;41.924;25.562;2022-08-19T09:20:05;99049.34;;;42.25;21.20
54900;BME280;40801;41.924;25.562;2022-08-19T09:22:34;99047.91;;;42.37;21.05
54900;BME280;40801;41.924;25.562;2022-08-19T09:25:01;99047.16;;;42.61;20.62
54900;BME280;40801;41.924;25.562;2022-08-19T09:27:27;99041.53;;;42.98;20.43
54900;BME280;40801;41.924;25.562;2022-08-19T09:29:54;99043.78;;;42.62;20.89
54900;BME280;40801;41.924;25.562;2022-08-19T09:32:21;99043.78;;;42.38;21.41
54900;BME280;40801;41.924;25.562;2022-08-19T09:34:47;99040.94;;;42.62;21.28
54900;BME280;40801;41.924;25.562;2022-08-19T09:37:12;99038.69;;;42.80;20.42
54900;BME280;40801;41.924;25.562;2022-08-19T09:39:38;99042.06;;;43.35;20.05
54900;BME280;40801;41.924;25.562;2022-08-19T09:42:05;99038.34;;;42.40;20.51
54900;BME280;40801;41.924;25.562;2022-08-19T09:44:34;99025.66;;;42.90;20.10
54900;BME280;40801;41.924;25.562;2022-08-19T09:46:59;99035.72;;;43.10;20.18
54900;BME280;40801;41.924;25.562;2022-08-19T09:49:25;99033.16;;;43.25;19.73
54900;BME280;40801;41.924;25.562;2022-08-19T09:51:51;99017.06;;;43.65;19.19
54900;BME280;40801;41.924;25.562;2022-08-19T09:54:18;99030.81;;;43.29;19.23
54900;BME280;40801;41.924;25.562;2022-08-19T09:56:44;99027.22;;;43.61;18.80
54900;BME280;40801;41.924;25.562;2022-08-19T09:59:09;99022.66;;;44.03;18.58
54900;BME280;40801;41.924;25.562;2022-08-19T10:01:37;99025.44;;;44.35;18.64
54900;BME280;40801;41.924;25.562;2022-08-19T10:04:03;99022.69;;;44.16;18.73
54900;BME280;40801;41.924;25.562;2022-08-19T10:06:37;99017.78;;;43.84;18.76
54900;BME280;40801;41.924;25.562;2022-08-19T10:09:06;99014.78;;;44.22;18.44
54900;BME280;40801;41.924;25.562;2022-08-19T10:11:33;99012.28;;;44.18;18.18
54900;BME280;40801;41.924;25.562;2022-08-19T10:13:58;99013.00;;;43.93;18.63
54900;BME280;40801;41.924;25.562;2022-08-19T10:16:25;99020.47;;;44.22;18.58
54900;BME280;40801;41.924;25.562;2022-08-19T10:18:52;99010.16;;;43.79;18.39
54900;BME280;40801;41.924;25.562;2022-08-19T10:21:22;99016.47;;;44.57;18.42
54900;BME280;40801;41.924;25.562;2022-08-19T10:23:49;99016.69;;;44.86;17.59
54900;BME280;40801;41.924;25.562;2022-08-19T10:26:18;99021.59;;;44.72;17.45
54900;BME280;40801;41.924;25.562;2022-08-19T10:28:44;99010.75;;;44.84;17.61
54900;BME280;40801;41.924;25.562;2022-08-19T10:31:13;99012.41;;;44.66;17.75
54900;BME280;40801;41.924;25.562;2022-08-19T10:33:40;99003.97;;;45.21;17.32
54900;BME280;40801;41.924;25.562;2022-08-19T10:36:12;99005.44;;;45.01;16.83
54900;BME280;40801;41.924;25.562;2022-08-19T10:38:40;98997.22;;;45.45;16.96
54900;BME280;40801;41.924;25.562;2022-08-19T10:41:13;98995.38;;;45.34;17.11
54900;BME280;40801;41.924;25.562;2022-08-19T10:43:40;98995.53;;;45.28;16.99
54900;BME280;40801;41.924;25.562;2022-08-19T10:46:07;98998.78;;;45.32;16.94
54900;BME280;40801;41.924;25.562;2022-08-19T10:48:33;98993.34;;;44.87;17.48
54900;BME280;40801;41.924;25.562;2022-08-19T10:51:00;98984.16;;;44.68;17.05
54900;BME280;40801;41.924;25.562;2022-08-19T10:53:44;98984.59;;;44.85;17.07
54900;BME280;40801;41.924;25.562;2022-08-19T10:56:09;98985.78;;;44.90;16.90
54900;BME280;40801;41.924;25.562;2022-08-19T10:58:53;98983.84;;;44.71;17.28
54900;BME280;40801;41.924;25.562;2022-08-19T11:01:19;98971.22;;;44.80;17.07
54900;BME280;40801;41.924;25.562;2022-08-19T11:03:45;98975.16;;;44.90;17.27
54900;BME280;40801;41.924;25.562;2022-08-19T11:06:10;98963.28;;;45.13;17.00
54900;BME280;40801;41.924;25.562;2022-08-19T11:08:37;98962.88;;;45.29;16.21
54900;BME280;40801;41.924;25.562;2022-08-19T11:11:04;98957.03;;;45.77;16.30
54900;BME280;40801;41.924;25.562;2022-08-19T11:13:32;98957.44;;;45.60;16.38
54900;BME280;40801;41.924;25.562;2022-08-19T11:16:01;98947.66;;;45.48;16.06
54900;BME280;40801;41.924;25.562;2022-08-19T11:18:27;98960.03;;;45.71;16.26
54900;BME280;40801;41.924;25.562;2022-08-19T11:20:53;98954.47;;;44.76;16.90
54900;BME280;40801;41.924;25.562;2022-08-19T11:23:18;98948.44;;;44.19;17.28
54900;BME280;40801;41.924;25.562;2022-08-19T11:25:44;98943.81;;;44.43;17.23
54900;BME280;40801;41.924;25.562;2022-08-19T11:28:11;98945.28;;;44.84;17.32
54900;BME280;40801;41.924;25.562;2022-08-19T11:30:37;98936.84;;;45.46;16.72
54900;BME280;40801;41.924;25.562;2022-08-19T11:33:03;98944.97;;;45.08;16.62
54900;BME280;40801;41.924;25.562;2022-08-19T11:35:28;98936.75;;;45.18;16.73
54900;BME280;40801;41.924;25.562;2022-08-19T11:37:54;98926.63;;;45.30;16.28
54900;BME280;40801;41.924;25.562;2022-08-19T11:40:21;98927.31;;;45.64;15.95
54900;BME280;40801;41.924;25.562;2022-08-19T11:42:46;98931.78;;;44.63;16.60
54900;BME280;40801;41.924;25.562;2022-08-19T11:45:22;98927.31;;;43.88;17.31
54900;BME280;40801;41.924;25.562;2022-08-19T11:47:47;98924.59;;;43.70;17.75
54900;BME280;40801;41.924;25.562;2022-08-19T11:50:14;98918.13;;;43.82;17.35
54900;BME280;40801;41.924;25.562;2022-08-19T11:52:40;98910.72;;;44.32;17.48
54900;BME280;40801;41.924;25.562;2022-08-19T11:55:06;98913.09;;;44.41;16.77
54900;BME280;40801;41.924;25.562;2022-08-19T11:57:31;98917.50;;;44.29;17.74
54900;BME280;40801;41.924;25.562;2022-08-19T11:59:57;98909.81;;;44.37;17.07
54900;BME280;40801;41.924;25.562;2022-08-19T12:02:22;98914.31;;;44.06;17.19
54900;BME280;40801;41.924;25.562;2022-08-19T12:04:48;98906.34;;;44.31;17.54
54900;BME280;40801;41.924;25.562;2022-08-19T12:07:14;98904.66;;;44.96;16.79
54900;BME280;40801;41.924;25.562;2022-08-19T12:09:40;98903.63;;;45.69;16.38
54900;BME280;40801;41.924;25.562;2022-08-19T12:12:05;98900.75;;;45.69;16.73
54900;BME280;40801;41.924;25.562;2022-08-19T12:14:31;98898.31;;;46.38;15.93
54900;BME280;40801;41.924;25.562;2022-08-19T12:16:57;98882.59;;;46.60;15.91
54900;BME280;40801;41.924;25.562;2022-08-19T12:19:23;98895.75;;;46.63;15.42
54900;BME280;40801;41.924;25.562;2022-08-19T12:21:50;98882.47;;;46.29;15.74
54900;BME280;40801;41.924;25.562;2022-08-19T12:24:16;98887.66;;;46.98;15.16
54900;BME280;40801;41.924;25.562;2022-08-19T12:26:47;98885.59;;;47.44;15.42
54900;BME280;40801;41.924;25.562;2022-08-19T12:29:13;98891.72;;;47.48;14.58
54900;BME280;40801;41.924;25.562;2022-08-19T12:31:39;98884.38;;;46.27;15.54
54900;BME280;40801;41.924;25.562;2022-08-19T12:34:04;98892.34;;;45.01;16.14
54900;BME280;40801;41.924;25.562;2022-08-19T12:36:30;98896.72;;;44.08;16.91
54900;BME280;40801;41.924;25.562;2022-08-19T12:38:57;98896.41;;;44.25;16.91
54900;BME280;40801;41.924;25.562;2022-08-19T12:41:23;98889.88;;;43.58;17.47
54900;BME280;40801;41.924;25.562;2022-08-19T12:43:48;98892.66;;;43.90;17.55
54900;BME280;40801;41.924;25.562;2022-08-19T12:46:15;98883.59;;;44.05;17.51
54900;BME280;40801;41.924;25.562;2022-08-19T12:48:40;98891.75;;;44.48;17.06
54900;BME280;40801;41.924;25.562;2022-08-19T12:51:13;98878.91;;;44.68;16.78
54900;BME280;40801;41.924;25.562;2022-08-19T12:53:39;98880.50;;;44.56;17.05
54900;BME280;40801;41.924;25.562;2022-08-19T12:56:04;98881.09;;;45.37;16.84
54900;BME280;40801;41.924;25.562;2022-08-19T12:58:30;98873.06;;;45.78;16.21
54900;BME280;40801;41.924;25.562;2022-08-19T13:00:59;98870.22;;;46.06;15.88
54900;BME280;40801;41.924;25.562;2022-08-19T13:03:25;98876.78;;;46.29;15.47